sensor_id;sensor_type;location;lat;lon;timestamp;P1;durP1;ratioP1;P2;durP2;ratioP2
76574;SDS011;65439;50.948;6.988;2023-12-20T00:01:02;15.13;;;8.60;;
76574;SDS011;65439;50.948;6.988;2023-12-20T00:03:28;18.48;;;9.77;;
76574;SDS011;65439;50.948;6.988;2023-12-20T00:05:53;14.70;;;8.87;;
76574;SDS011;65439;50.948;6.988;2023-12-20T00:08:18;13.17;;;8.10;;
76574;SDS011;65439;50.948;6.988;2023-12-20T00:10:44;13.53;;;7.93;;
76574;SDS011;65439;50.948;6.988;2023-12-20T00:13:09;11.48;;;7.68;;
76574;SDS011;65439;50.948;6.988;2023-12-20T00:15:35;12.57;;;8.68;;
76574;SDS011;65439;50.948;6.988;2023-12-20T00:18:00;13.90;;;9.00;;
76574;SDS011;65439;50.948;6.988;2023-12-20T00:20:26;12.70;;;8.32;;
76574;SDS011;65439;50.948;6.988;2023-12-20T00:22:51;13.23;;;9.10;;
76574;SDS011;65439;50.948;6.988;2023-12-20T00:25:17;15.30;;;9.60;;
76574;SDS011;65439;50.948;6.988;2023-12-20T00:27:42;14.40;;;9.10;;
76574;SDS011;65439;50.948;6.988;2023-12-20T00:30:08;12.30;;;7.15;;
76574;SDS011;65439;50.948;6.988;2023-12-20T00:32:34;12.27;;;7.95;;
76574;SDS011;65439;50.948;6.988;2023-12-20T00:35:00;11.43;;;6.90;;
76574;SDS011;65439;50.948;6.988;2023-12-20T00:37:25;8.13;;;5.70;;
76574;SDS011;65439;50.948;6.988;2023-12-20T00:39:51;8.02;;;5.30;;
76574;SDS011;65439;50.948;6.988;2023-12-20T00:42:16;8.02;;;5.65;;
76574;SDS011;65439;50.948;6.988;2023-12-20T00:44:41;7.57;;;4.30;;
76574;SDS011;65439;50.948;6.988;2023-12-20T00:47:07;6.90;;;4.50;;
76574;SDS011;65439;50.948;6.988;2023-12-20T00:49:32;10.47;;;5.60;;
76574;SDS011;65439;50.948;6.988;2023-12-20T00:51:57;7.50;;;4.13;;
76574;SDS011;65439;50.948;6.988;2023-12-20T00:54:23;9.55;;;4.45;;
76574;SDS011;65439;50.948;6.988;2023-12-20T00:56:48;7.93;;;5.73;;
76574;SDS011;65439;50.948;6.988;2023-12-20T00:59:13;8.32;;;4.88;;
76574;SDS011;65439;50.948;6.988;2023-12-20T01:01:39;9.02;;;5.25;;
76574;SDS011;65439;50.948;6.988;2023-12-20T01:04:05;5.65;;;3.15;;
76574;SDS011;65439;50.948;6.988;2023-12-20T01:06:30;8.37;;;4.53;;
76574;SDS011;65439;50.948;6.988;2023-12-20T01:08:55;6.20;;;4.17;;
76574;SDS011;65439;50.948;6.988;2023-12-20T01:11:21;7.33;;;4.13;;
76574;SDS011;65439;50.948;6.988;2023-12-20T01:13:46;8.73;;;3.38;;
76574;SDS011;65439;50.948;6.988;2023-12-20T01:16:12;5.83;;;4.43;;
76574;SDS011;65439;50.948;6.988;2023-12-20T01:18:37;9.10;;;3.80;;
76574;SDS011;65439;50.948;6.988;2023-12-20T01:21:03;9.55;;;4.90;;
76574;SDS011;65439;50.948;6.988;2023-12-20T01:23:29;7.57;;;4.50;;
76574;SDS011;65439;50.948;6.988;2023-12-20T01:25:55;5.43;;;3.70;;
76574;SDS011;65439;50.948;6.988;2023-12-20T01:28:20;10.93;;;4.27;;
76574;SDS011;65439;50.948;6.988;2023-12-20T01:30:45;8.10;;;4.83;;
76574;SDS011;65439;50.948;6.988;2023-12-20T01:33:11;6.20;;;4.40;;
76574;SDS011;65439;50.948;6.988;2023-12-20T01:35:36;9.65;;;5.28;;
76574;SDS011;65439;50.948;6.988;2023-12-20T01:38:02;11.68;;;5.25;;
76574;SDS011;65439;50.948;6.988;2023-12-20T01:40:27;11.32;;;6.57;;
76574;SDS011;65439;50.948;6.988;2023-12-20T01:42:59;12.03;;;5.07;;
76574;SDS011;65439;50.948;6.988;2023-12-20T01:45:35;12.38;;;7.03;;
76574;SDS011;65439;50.948;6.988;2023-12-20T01:48:00;13.38;;;6.40;;
76574;SDS011;65439;50.948;6.988;2023-12-20T01:50:27;18.63;;;7.95;;
76574;SDS011;65439;50.948;6.988;2023-12-20T01:52:53;15.93;;;8.50;;
76574;SDS011;65439;50.948;6.988;2023-12-20T01:55:22;16.88;;;7.97;;
76574;SDS011;65439;50.948;6.988;2023-12-20T01:57:48;12.10;;;8.43;;
76574;SDS011;65439;50.948;6.988;2023-12-20T02:00:13;12.75;;;8.18;;
76574;SDS011;65439;50.948;6.988;2023-12-20T02:02:40;16.08;;;8.25;;
76574;SDS011;65439;50.948;6.988;2023-12-20T02:05:06;13.80;;;8.93;;
76574;SDS011;65439;50.948;6.988;2023-12-20T02:07:31;13.13;;;8.27;;
76574;SDS011;65439;50.948;6.988;2023-12-20T02:09:57;16.70;;;10.07;;
76574;SDS011;65439;50.948;6.988;2023-12-20T02:12:22;17.37;;;9.50;;
76574;SDS011;65439;50.948;6.988;2023-12-20T02:14:48;16.75;;;9.27;;
76574;SDS011;65439;50.948;6.988;2023-12-20T02:17:13;15.68;;;8.90;;
76574;SDS011;65439;50.948;6.988;2023-12-20T02:19:39;21.23;;;9.15;;
76574;SDS011;65439;50.948;6.988;2023-12-20T02:22:11;13.37;;;8.50;;
76574;SDS011;65439;50.948;6.988;2023-12-20T02:24:37;16.23;;;9.05;;
76574;SDS011;65439;50.948;6.988;2023-12-20T02:27:02;13.52;;;6.53;;
76574;SDS011;65439;50.948;6.988;2023-12-20T02:29:28;12.75;;;6.68;;
76574;SDS011;65439;50.948;6.988;2023-12-20T02:31:53;18.45;;;7.57;;
76574;SDS011;65439;50.948;6.988;2023-12-20T02:34:19;14.17;;;7.47;;
76574;SDS011;65439;50.948;6.988;2023-12-20T02:36:44;10.67;;;6.13;;
76574;SDS011;65439;50.948;6.988;2023-12-20T02:39:09;12.33;;;5.43;;
76574;SDS011;65439;50.948;6.988;2023-12-20T02:41:35;12.90;;;5.53;;
76574;SDS011;65439;50.948;6.988;2023-12-20T02:44:01;15.00;;;5.17;;
76574;SDS011;65439;50.948;6.988;2023-12-20T02:46:26;11.55;;;5.80;;
76574;SDS011;65439;50.948;6.988;2023-12-20T02:48:52;10.27;;;4.53;;
76574;SDS011;65439;50.948;6.988;2023-12-20T02:51:17;9.33;;;4.73;;
76574;SDS011;65439;50.948;6.988;2023-12-20T02:53:42;12.80;;;4.47;;
76574;SDS011;65439;50.948;6.988;2023-12-20T02:56:08;11.20;;;4.90;;
76574;SDS011;65439;50.948;6.988;2023-12-20T02:58:33;15.90;;;6.57;;
76574;SDS011;65439;50.948;6.988;2023-12-20T03:00:58;10.97;;;3.93;;
76574;SDS011;65439;50.948;6.988;2023-12-20T03:03:24;10.95;;;3.75;;
76574;SDS011;65439;50.948;6.988;2023-12-20T03:05:50;13.55;;;3.42;;
76574;SDS011;65439;50.948;6.988;2023-12-20T03:08:15;10.60;;;3.30;;
76574;SDS011;65439;50.948;6.988;2023-12-20T03:10:40;11.93;;;3.93;;
76574;SDS011;65439;50.948;6.988;2023-12-20T03:13:06;6.45;;;3.45;;
76574;SDS011;65439;50.948;6.988;2023-12-20T03:15:31;5.53;;;3.00;;
76574;SDS011;65439;50.948;6.988;2023-12-20T03:17:56;7.27;;;2.57;;
76574;SDS011;65439;50.948;6.988;2023-12-20T03:20:24;5.30;;;2.90;;
76574;SDS011;65439;50.948;6.988;2023-12-20T03:25:16;3.77;;;2.70;;
76574;SDS011;65439;50.948;6.988;2023-12-20T03:27:41;5.57;;;2.77;;
76574;SDS011;65439;50.948;6.988;2023-12-20T03:30:06;6.40;;;2.93;;
76574;SDS011;65439;50.948;6.988;2023-12-20T03:32:32;10.52;;;2.83;;
76574;SDS011;65439;50.948;6.988;2023-12-20T03:34:57;5.97;;;2.60;;
76574;SDS011;65439;50.948;6.988;2023-12-20T03:37:23;8.73;;;2.50;;
76574;SDS011;65439;50.948;6.988;2023-12-20T03:39:48;9.40;;;2.97;;
76574;SDS011;65439;50.948;6.988;2023-12-20T03:42:13;9.20;;;2.53;;
76574;SDS011;65439;50.948;6.988;2023-12-20T03:44:39;5.80;;;2.65;;
76574;SDS011;65439;50.948;6.988;2023-12-20T03:47:05;7.15;;;2.70;;
76574;SDS011;65439;50.948;6.988;2023-12-20T03:49:30;10.48;;;3.13;;
76574;SDS011;65439;50.948;6.988;2023-12-20T03:51:55;9.03;;;3.00;;
76574;SDS011;65439;50.948;6.988;2023-12-20T03:54:21;6.25;;;2.28;;
76574;SDS011;65439;50.948;6.988;2023-12-20T03:56:46;8.60;;;2.57;;
76574;SDS011;65439;50.948;6.988;2023-12-20T03:59:11;10.13;;;3.60;;
76574;SDS011;65439;50.948;6.988;2023-12-20T04:01:37;9.07;;;2.87;;
76574;SDS011;65439;50.948;6.988;2023-12-20T04:04:02;6.20;;;2.83;;
76574;SDS011;65439;50.948;6.988;2023-12-20T04:06:28;8.18;;;3.90;;
76574;SDS011;65439;50.948;6.988;2023-12-20T04:08:53;11.32;;;3.42;;
76574;SDS011;65439;50.948;6.988;2023-12-20T04:11:18;10.68;;;2.80;;
76574;SDS011;65439;50.948;6.988;2023-12-20T04:13:44;10.67;;;3.20;;
76574;SDS011;65439;50.948;6.988;2023-12-20T04:16:09;13.10;;;3.87;;
76574;SDS011;65439;50.948;6.988;2023-12-20T04:18:34;10.27;;;3.30;;
76574;SDS011;65439;50.948;6.988;2023-12-20T04:21:00;10.07;;;3.10;;
76574;SDS011;65439;50.948;6.988;2023-12-20T04:23:25;7.73;;;2.80;;
76574;SDS011;65439;50.948;6.988;2023-12-20T04:25:50;9.23;;;2.93;;
76574;SDS011;65439;50.948;6.988;2023-12-20T04:28:15;12.27;;;2.73;;
76574;SDS011;65439;50.948;6.988;2023-12-20T04:30:41;10.70;;;3.03;;
76574;SDS011;65439;50.948;6.988;2023-12-20T04:33:07;8.93;;;3.20;;
76574;SDS011;65439;50.948;6.988;2023-12-20T04:35:32;10.47;;;3.73;;
76574;SDS011;65439;50.948;6.988;2023-12-20T04:37:58;9.13;;;3.33;;
76574;SDS011;65439;50.948;6.988;2023-12-20T04:40:23;15.80;;;3.33;;
76574;SDS011;65439;50.948;6.988;2023-12-20T04:42:48;10.60;;;3.10;;
76574;SDS011;65439;50.948;6.988;2023-12-20T04:45:13;11.40;;;3.87;;
76574;SDS011;65439;50.948;6.988;2023-12-20T04:47:41;11.13;;;2.80;;
76574;SDS011;65439;50.948;6.988;2023-12-20T04:50:07;13.95;;;3.70;;
76574;SDS011;65439;50.948;6.988;2023-12-20T04:52:32;10.60;;;3.78;;
76574;SDS011;65439;50.948;6.988;2023-12-20T04:54:58;11.65;;;3.35;;
76574;SDS011;65439;50.948;6.988;2023-12-20T04:57:24;11.15;;;4.15;;
76574;SDS011;65439;50.948;6.988;2023-12-20T04:59:49;11.77;;;3.60;;
76574;SDS011;65439;50.948;6.988;2023-12-20T05:02:14;10.40;;;3.53;;
76574;SDS011;65439;50.948;6.988;2023-12-20T05:04:40;15.68;;;3.78;;
76574;SDS011;65439;50.948;6.988;2023-12-20T05:07:06;11.27;;;4.20;;
76574;SDS011;65439;50.948;6.988;2023-12-20T05:09:31;10.70;;;4.33;;
76574;SDS011;65439;50.948;6.988;2023-12-20T05:11:57;10.00;;;3.70;;
76574;SDS011;65439;50.948;6.988;2023-12-20T05:14:22;14.27;;;3.93;;
76574;SDS011;65439;50.948;6.988;2023-12-20T05:16:47;10.90;;;4.03;;
76574;SDS011;65439;50.948;6.988;2023-12-20T05:19:12;10.53;;;3.73;;
76574;SDS011;65439;50.948;6.988;2023-12-20T05:21:39;12.10;;;3.53;;
76574;SDS011;65439;50.948;6.988;2023-12-20T05:24:04;11.90;;;3.88;;
76574;SDS011;65439;50.948;6.988;2023-12-20T05:26:30;9.45;;;4.07;;
76574;SDS011;65439;50.948;6.988;2023-12-20T05:28:55;13.50;;;4.00;;
76574;SDS011;65439;50.948;6.988;2023-12-20T05:31:20;14.33;;;4.20;;
76574;SDS011;65439;50.948;6.988;2023-12-20T05:33:46;11.77;;;3.27;;
76574;SDS011;65439;50.948;6.988;2023-12-20T05:36:11;7.50;;;3.63;;
76574;SDS011;65439;50.948;6.988;2023-12-20T05:38:38;14.48;;;5.68;;
76574;SDS011;65439;50.948;6.988;2023-12-20T05:41:03;4.47;;;2.40;;
76574;SDS011;65439;50.948;6.988;2023-12-20T05:43:29;11.77;;;3.90;;
76574;SDS011;65439;50.948;6.988;2023-12-20T05:45:54;11.02;;;3.72;;
76574;SDS011;65439;50.948;6.988;2023-12-20T05:48:19;18.23;;;4.90;;
76574;SDS011;65439;50.948;6.988;2023-12-20T05:50:45;11.25;;;3.95;;
76574;SDS011;65439;50.948;6.988;2023-12-20T05:53:10;9.47;;;4.20;;
76574;SDS011;65439;50.948;6.988;2023-12-20T05:55:35;7.93;;;4.53;;
76574;SDS011;65439;50.948;6.988;2023-12-20T05:58:01;10.17;;;3.23;;
76574;SDS011;65439;50.948;6.988;2023-12-20T06:00:26;10.47;;;3.93;;
76574;SDS011;65439;50.948;6.988;2023-12-20T06:02:51;7.90;;;3.10;;
76574;SDS011;65439;50.948;6.988;2023-12-20T06:05:16;8.47;;;3.47;;
76574;SDS011;65439;50.948;6.988;2023-12-20T06:07:42;16.37;;;5.00;;
76574;SDS011;65439;50.948;6.988;2023-12-20T06:10:07;9.63;;;3.90;;
76574;SDS011;65439;50.948;6.988;2023-12-20T06:12:33;8.45;;;3.67;;
76574;SDS011;65439;50.948;6.988;2023-12-20T06:15:00;9.45;;;3.03;;
76574;SDS011;65439;50.948;6.988;2023-12-20T06:17:26;8.60;;;3.50;;
76574;SDS011;65439;50.948;6.988;2023-12-20T06:19:51;10.65;;;4.13;;
76574;SDS011;65439;50.948;6.988;2023-12-20T06:22:16;8.50;;;3.87;;
76574;SDS011;65439;50.948;6.988;2023-12-20T06:24:42;12.53;;;4.17;;
76574;SDS011;65439;50.948;6.988;2023-12-20T06:27:07;9.80;;;3.80;;
76574;SDS011;65439;50.948;6.988;2023-12-20T06:29:32;9.97;;;3.90;;
76574;SDS011;65439;50.948;6.988;2023-12-20T06:31:59;17.10;;;5.55;;
76574;SDS011;65439;50.948;6.988;2023-12-20T06:34:25;13.20;;;4.27;;
76574;SDS011;65439;50.948;6.988;2023-12-20T06:36:50;9.43;;;4.38;;
76574;SDS011;65439;50.948;6.988;2023-12-20T06:39:15;13.10;;;4.60;;
76574;SDS011;65439;50.948;6.988;2023-12-20T06:41:41;18.30;;;5.67;;
76574;SDS011;65439;50.948;6.988;2023-12-20T06:44:07;9.95;;;3.90;;
76574;SDS011;65439;50.948;6.988;2023-12-20T06:46:33;13.05;;;4.05;;
76574;SDS011;65439;50.948;6.988;2023-12-20T06:48:58;11.23;;;3.63;;
76574;SDS011;65439;50.948;6.988;2023-12-20T06:51:23;10.47;;;3.87;;
76574;SDS011;65439;50.948;6.988;2023-12-20T06:53:50;6.57;;;3.88;;
76574;SDS011;65439;50.948;6.988;2023-12-20T06:56:16;11.85;;;3.70;;
76574;SDS011;65439;50.948;6.988;2023-12-20T06:58:42;8.83;;;3.40;;
76574;SDS011;65439;50.948;6.988;2023-12-20T07:01:10;11.95;;;3.72;;
76574;SDS011;65439;50.948;6.988;2023-12-20T07:03:39;9.57;;;3.15;;
76574;SDS011;65439;50.948;6.988;2023-12-20T07:06:05;7.28;;;2.95;;
76574;SDS011;65439;50.948;6.988;2023-12-20T07:08:31;4.47;;;2.65;;
76574;SDS011;65439;50.948;6.988;2023-12-20T07:10:56;7.97;;;3.10;;
76574;SDS011;65439;50.948;6.988;2023-12-20T07:13:21;16.30;;;3.83;;
76574;SDS011;65439;50.948;6.988;2023-12-20T07:15:47;5.82;;;2.97;;
76574;SDS011;65439;50.948;6.988;2023-12-20T07:18:13;9.23;;;3.63;;
76574;SDS011;65439;50.948;6.988;2023-12-20T07:20:38;16.57;;;3.90;;
76574;SDS011;65439;50.948;6.988;2023-12-20T07:23:04;10.68;;;4.13;;
76574;SDS011;65439;50.948;6.988;2023-12-20T07:25:29;12.82;;;3.40;;
76574;SDS011;65439;50.948;6.988;2023-12-20T07:27:57;5.10;;;3.33;;
76574;SDS011;65439;50.948;6.988;2023-12-20T07:30:22;11.55;;;2.90;;
76574;SDS011;65439;50.948;6.988;2023-12-20T07:32:48;11.47;;;3.30;;
76574;SDS011;65439;50.948;6.988;2023-12-20T07:35:13;16.03;;;5.47;;
76574;SDS011;65439;50.948;6.988;2023-12-20T07:37:38;7.68;;;3.45;;
76574;SDS011;65439;50.948;6.988;2023-12-20T07:40:04;7.87;;;3.83;;
76574;SDS011;65439;50.948;6.988;2023-12-20T07:42:30;10.90;;;3.92;;
76574;SDS011;65439;50.948;6.988;2023-12-20T07:44:55;7.87;;;4.10;;
76574;SDS011;65439;50.948;6.988;2023-12-20T07:47:20;13.87;;;4.60;;
76574;SDS011;65439;50.948;6.988;2023-12-20T07:49:47;16.40;;;4.65;;
76574;SDS011;65439;50.948;6.988;2023-12-20T07:52:13;14.32;;;4.45;;
76574;SDS011;65439;50.948;6.988;2023-12-20T07:54:39;11.25;;;4.32;;
76574;SDS011;65439;50.948;6.988;2023-12-20T07:57:04;8.45;;;4.25;;
76574;SDS011;65439;50.948;6.988;2023-12-20T07:59:30;13.65;;;3.90;;
76574;SDS011;65439;50.948;6.988;2023-12-20T08:01:55;15.27;;;4.80;;
76574;SDS011;65439;50.948;6.988;2023-12-20T08:04:20;15.27;;;3.95;;
76574;SDS011;65439;50.948;6.988;2023-12-20T08:06:46;9.50;;;3.27;;
76574;SDS011;65439;50.948;6.988;2023-12-20T08:09:11;11.13;;;4.80;;
76574;SDS011;65439;50.948;6.988;2023-12-20T08:11:36;6.97;;;3.27;;
76574;SDS011;65439;50.948;6.988;2023-12-20T08:14:01;12.23;;;5.37;;
76574;SDS011;65439;50.948;6.988;2023-12-20T08:16:27;9.90;;;4.07;;
76574;SDS011;65439;50.948;6.988;2023-12-20T08:18:52;9.17;;;4.33;;
76574;SDS011;65439;50.948;6.988;2023-12-20T08:21:17;7.33;;;3.43;;
76574;SDS011;65439;50.948;6.988;2023-12-20T08:23:45;11.80;;;4.70;;
76574;SDS011;65439;50.948;6.988;2023-12-20T08:26:11;8.75;;;3.83;;
76574;SDS011;65439;50.948;6.988;2023-12-20T08:28:36;14.23;;;4.53;;
76574;SDS011;65439;50.948;6.988;2023-12-20T08:31:02;8.70;;;2.92;;
76574;SDS011;65439;50.948;6.988;2023-12-20T08:33:27;15.00;;;4.57;;
76574;SDS011;65439;50.948;6.988;2023-12-20T08:35:52;8.60;;;4.23;;
76574;SDS011;65439;50.948;6.988;2023-12-20T08:38:18;10.10;;;4.17;;
76574;SDS011;65439;50.948;6.988;2023-12-20T08:40:43;8.43;;;4.35;;
76574;SDS011;65439;50.948;6.988;2023-12-20T08:43:09;10.20;;;4.32;;
76574;SDS011;65439;50.948;6.988;2023-12-20T08:45:34;9.77;;;4.20;;
76574;SDS011;65439;50.948;6.988;2023-12-20T08:48:00;10.85;;;4.07;;
76574;SDS011;65439;50.948;6.988;2023-12-20T08:50:25;8.30;;;2.50;;
76574;SDS011;65439;50.948;6.988;2023-12-20T08:52:50;7.13;;;4.07;;
76574;SDS011;65439;50.948;6.988;2023-12-20T08:55:16;9.25;;;3.50;;
76574;SDS011;65439;50.948;6.988;2023-12-20T08:57:43;10.95;;;4.63;;
76574;SDS011;65439;50.948;6.988;2023-12-20T09:00:08;17.57;;;4.70;;
76574;SDS011;65439;50.948;6.988;2023-12-20T09:02:34;9.00;;;3.50;;
76574;SDS011;65439;50.948;6.988;2023-12-20T09:05:01;7.00;;;3.40;;
76574;SDS011;65439;50.948;6.988;2023-12-20T09:07:27;9.98;;;3.53;;
76574;SDS011;65439;50.948;6.988;2023-12-20T09:09:55;14.80;;;4.15;;
76574;SDS011;65439;50.948;6.988;2023-12-20T09:12:20;12.55;;;4.00;;
76574;SDS011;65439;50.948;6.988;2023-12-20T09:14:46;11.75;;;3.58;;
76574;SDS011;65439;50.948;6.988;2023-12-20T09:17:12;10.02;;;3.95;;
76574;SDS011;65439;50.948;6.988;2023-12-20T09:19:38;9.23;;;3.55;;
76574;SDS011;65439;50.948;6.988;2023-12-20T09:22:04;12.18;;;3.70;;
76574;SDS011;65439;50.948;6.988;2023-12-20T09:24:29;11.38;;;3.90;;
76574;SDS011;65439;50.948;6.988;2023-12-20T09:26:55;7.63;;;3.42;;
76574;SDS011;65439;50.948;6.988;2023-12-20T09:29:20;16.00;;;3.83;;
76574;SDS011;65439;50.948;6.988;2023-12-20T09:31:46;14.17;;;4.20;;
76574;SDS011;65439;50.948;6.988;2023-12-20T09:34:11;12.00;;;2.97;;
76574;SDS011;65439;50.948;6.988;2023-12-20T09:36:36;13.27;;;3.30;;
76574;SDS011;65439;50.948;6.988;2023-12-20T09:39:03;8.70;;;3.50;;
76574;SDS011;65439;50.948;6.988;2023-12-20T09:41:30;7.28;;;3.42;;
76574;SDS011;65439;50.948;6.988;2023-12-20T09:43:56;10.68;;;3.67;;
76574;SDS011;65439;50.948;6.988;2023-12-20T09:46:25;11.68;;;4.57;;
76574;SDS011;65439;50.948;6.988;2023-12-20T09:48:52;6.85;;;3.38;;
76574;SDS011;65439;50.948;6.988;2023-12-20T09:51:18;14.18;;;3.92;;
76574;SDS011;65439;50.948;6.988;2023-12-20T09:53:44;9.75;;;3.60;;
76574;SDS011;65439;50.948;6.988;2023-12-20T09:56:10;10.85;;;3.42;;
76574;SDS011;65439;50.948;6.988;2023-12-20T09:58:37;14.98;;;3.35;;
76574;SDS011;65439;50.948;6.988;2023-12-20T10:01:04;8.43;;;3.63;;
76574;SDS011;65439;50.948;6.988;2023-12-20T10:03:29;4.57;;;2.67;;
76574;SDS011;65439;50.948;6.988;2023-12-20T10:05:56;7.80;;;3.17;;
76574;SDS011;65439;50.948;6.988;2023-12-20T10:08:22;6.47;;;3.03;;
76574;SDS011;65439;50.948;6.988;2023-12-20T10:10:49;7.00;;;3.00;;
76574;SDS011;65439;50.948;6.988;2023-12-20T10:13:14;10.73;;;3.20;;
76574;SDS011;65439;50.948;6.988;2023-12-20T10:15:40;8.65;;;3.55;;
76574;SDS011;65439;50.948;6.988;2023-12-20T10:18:06;12.73;;;4.03;;
76574;SDS011;65439;50.948;6.988;2023-12-20T10:20:31;10.90;;;3.25;;
76574;SDS011;65439;50.948;6.988;2023-12-20T10:22:57;10.07;;;2.92;;
76574;SDS011;65439;50.948;6.988;2023-12-20T10:25:24;7.82;;;3.35;;
76574;SDS011;65439;50.948;6.988;2023-12-20T10:27:50;16.63;;;3.55;;
76574;SDS011;65439;50.948;6.988;2023-12-20T10:30:16;6.97;;;2.85;;
76574;SDS011;65439;50.948;6.988;2023-12-20T10:32:41;5.90;;;3.22;;
76574;SDS011;65439;50.948;6.988;2023-12-20T10:35:06;7.40;;;3.47;;
76574;SDS011;65439;50.948;6.988;2023-12-20T10:37:35;8.57;;;3.38;;
76574;SDS011;65439;50.948;6.988;2023-12-20T10:40:03;10.30;;;3.33;;
76574;SDS011;65439;50.948;6.988;2023-12-20T10:42:29;6.93;;;2.40;;
76574;SDS011;65439;50.948;6.988;2023-12-20T10:44:54;8.23;;;3.35;;
76574;SDS011;65439;50.948;6.988;2023-12-20T10:47:20;8.03;;;3.03;;
76574;SDS011;65439;50.948;6.988;2023-12-20T10:49:46;7.05;;;2.53;;
76574;SDS011;65439;50.948;6.988;2023-12-20T10:52:11;3.75;;;2.17;;
76574;SDS011;65439;50.948;6.988;2023-12-20T10:54:38;5.80;;;2.90;;
76574;SDS011;65439;50.948;6.988;2023-12-20T10:57:06;3.95;;;2.65;;
76574;SDS011;65439;50.948;6.988;2023-12-20T10:59:38;6.93;;;3.40;;
76574;SDS011;65439;50.948;6.988;2023-12-20T11:02:04;14.15;;;3.25;;
76574;SDS011;65439;50.948;6.988;2023-12-20T11:10:30;9.85;;;2.92;;
76574;SDS011;65439;50.948;6.988;2023-12-20T11:13:03;5.30;;;2.90;;
76574;SDS011;65439;50.948;6.988;2023-12-20T11:15:36;10.52;;;3.17;;
76574;SDS011;65439;50.948;6.988;2023-12-20T11:18:01;6.95;;;2.92;;
76574;SDS011;65439;50.948;6.988;2023-12-20T11:20:40;4.93;;;2.25;;
76574;SDS011;65439;50.948;6.988;2023-12-20T11:23:06;10.02;;;2.63;;
76574;SDS011;65439;50.948;6.988;2023-12-20T11:25:46;10.13;;;3.33;;
76574;SDS011;65439;50.948;6.988;2023-12-20T11:28:12;7.63;;;2.95;;
76574;SDS011;65439;50.948;6.988;2023-12-20T11:30:41;12.20;;;3.17;;
76574;SDS011;65439;50.948;6.988;2023-12-20T11:33:14;11.13;;;3.22;;
76574;SDS011;65439;50.948;6.988;2023-12-20T11:35:40;6.82;;;3.10;;
76574;SDS011;65439;50.948;6.988;2023-12-20T11:38:09;7.20;;;2.83;;
76574;SDS011;65439;50.948;6.988;2023-12-20T11:40:35;8.35;;;2.53;;
76574;SDS011;65439;50.948;6.988;2023-12-20T11:43:02;6.50;;;3.30;;
76574;SDS011;65439;50.948;6.988;2023-12-20T11:45:27;5.50;;;2.85;;
76574;SDS011;65439;50.948;6.988;2023-12-20T11:47:53;6.95;;;3.45;;
76574;SDS011;65439;50.948;6.988;2023-12-20T11:50:19;5.65;;;2.70;;
76574;SDS011;65439;50.948;6.988;2023-12-20T11:52:45;3.47;;;2.05;;
76574;SDS011;65439;50.948;6.988;2023-12-20T11:55:10;10.07;;;2.75;;
76574;SDS011;65439;50.948;6.988;2023-12-20T11:57:36;8.02;;;2.72;;
76574;SDS011;65439;50.948;6.988;2023-12-20T12:00:02;7.53;;;2.20;;
76574;SDS011;65439;50.948;6.988;2023-12-20T12:02:28;7.18;;;3.35;;
76574;SDS011;65439;50.948;6.988;2023-12-20T12:04:53;11.70;;;3.37;;
76574;SDS011;65439;50.948;6.988;2023-12-20T12:07:18;9.18;;;3.30;;
76574;SDS011;65439;50.948;6.988;2023-12-20T12:09:45;12.00;;;3.35;;
76574;SDS011;65439;50.948;6.988;2023-12-20T12:12:11;9.90;;;3.20;;
76574;SDS011;65439;50.948;6.988;2023-12-20T12:14:37;6.25;;;2.95;;
76574;SDS011;65439;50.948;6.988;2023-12-20T12:17:03;3.92;;;2.95;;
76574;SDS011;65439;50.948;6.988;2023-12-20T12:19:29;3.78;;;2.22;;
76574;SDS011;65439;50.948;6.988;2023-12-20T12:22:13;9.93;;;3.92;;
76574;SDS011;65439;50.948;6.988;2023-12-20T12:24:42;9.48;;;3.03;;
76574;SDS011;65439;50.948;6.988;2023-12-20T12:27:09;8.55;;;2.75;;
76574;SDS011;65439;50.948;6.988;2023-12-20T12:29:34;10.52;;;3.67;;
76574;SDS011;65439;50.948;6.988;2023-12-20T12:32:00;6.85;;;3.35;;
76574;SDS011;65439;50.948;6.988;2023-12-20T12:34:29;10.73;;;3.35;;
76574;SDS011;65439;50.948;6.988;2023-12-20T12:36:55;6.15;;;2.63;;
76574;SDS011;65439;50.948;6.988;2023-12-20T12:39:24;8.65;;;2.65;;
76574;SDS011;65439;50.948;6.988;2023-12-20T12:41:52;7.85;;;3.72;;
76574;SDS011;65439;50.948;6.988;2023-12-20T12:44:18;12.73;;;4.00;;
76574;SDS011;65439;50.948;6.988;2023-12-20T12:46:47;8.65;;;2.78;;
76574;SDS011;65439;50.948;6.988;2023-12-20T12:49:14;6.20;;;2.40;;
76574;SDS011;65439;50.948;6.988;2023-12-20T12:51:40;6.87;;;3.37;;
76574;SDS011;65439;50.948;6.988;2023-12-20T12:54:05;14.73;;;3.83;;
76574;SDS011;65439;50.948;6.988;2023-12-20T12:56:30;7.70;;;3.67;;
76574;SDS011;65439;50.948;6.988;2023-12-20T12:58:56;15.10;;;4.10;;
76574;SDS011;65439;50.948;6.988;2023-12-20T13:01:21;14.98;;;5.75;;
76574;SDS011;65439;50.948;6.988;2023-12-20T13:03:46;7.90;;;3.63;;
76574;SDS011;65439;50.948;6.988;2023-12-20T13:06:12;11.77;;;4.05;;
76574;SDS011;65439;50.948;6.988;2023-12-20T13:08:37;12.13;;;3.80;;
76574;SDS011;65439;50.948;6.988;2023-12-20T13:11:03;7.80;;;3.15;;
76574;SDS011;65439;50.948;6.988;2023-12-20T13:13:29;10.93;;;3.78;;
76574;SDS011;65439;50.948;6.988;2023-12-20T13:15:55;7.22;;;5.03;;
76574;SDS011;65439;50.948;6.988;2023-12-20T13:18:20;9.95;;;2.95;;
76574;SDS011;65439;50.948;6.988;2023-12-20T13:20:46;10.10;;;4.13;;
76574;SDS011;65439;50.948;6.988;2023-12-20T13:23:12;11.90;;;4.90;;
76574;SDS011;65439;50.948;6.988;2023-12-20T13:25:37;7.90;;;3.75;;
76574;SDS011;65439;50.948;6.988;2023-12-20T13:28:03;4.03;;;2.67;;
76574;SDS011;65439;50.948;6.988;2023-12-20T13:30:28;8.65;;;3.45;;
76574;SDS011;65439;50.948;6.988;2023-12-20T13:32:54;7.38;;;3.90;;
76574;SDS011;65439;50.948;6.988;2023-12-20T13:35:19;14.10;;;4.17;;
76574;SDS011;65439;50.948;6.988;2023-12-20T13:37:45;4.82;;;2.40;;
76574;SDS011;65439;50.948;6.988;2023-12-20T13:40:11;5.88;;;3.00;;
76574;SDS011;65439;50.948;6.988;2023-12-20T13:42:36;11.50;;;3.45;;
76574;SDS011;65439;50.948;6.988;2023-12-20T13:45:01;12.47;;;4.10;;
76574;SDS011;65439;50.948;6.988;2023-12-20T13:47:27;8.48;;;4.30;;
76574;SDS011;65439;50.948;6.988;2023-12-20T13:49:52;8.37;;;2.93;;
76574;SDS011;65439;50.948;6.988;2023-12-20T13:52:17;7.30;;;3.73;;
76574;SDS011;65439;50.948;6.988;2023-12-20T13:54:43;11.80;;;3.33;;
76574;SDS011;65439;50.948;6.988;2023-12-20T13:57:09;6.90;;;2.70;;
76574;SDS011;65439;50.948;6.988;2023-12-20T13:59:34;6.93;;;2.57;;
76574;SDS011;65439;50.948;6.988;2023-12-20T14:02:00;7.57;;;3.70;;
76574;SDS011;65439;50.948;6.988;2023-12-20T14:04:26;9.20;;;3.13;;
76574;SDS011;65439;50.948;6.988;2023-12-20T14:06:51;5.33;;;2.63;;
76574;SDS011;65439;50.948;6.988;2023-12-20T14:09:16;4.87;;;2.50;;
76574;SDS011;65439;50.948;6.988;2023-12-20T14:11:42;8.23;;;3.03;;
76574;SDS011;65439;50.948;6.988;2023-12-20T14:14:07;7.72;;;3.78;;
76574;SDS011;65439;50.948;6.988;2023-12-20T14:16:33;7.07;;;2.40;;
76574;SDS011;65439;50.948;6.988;2023-12-20T14:19:00;5.68;;;2.85;;
76574;SDS011;65439;50.948;6.988;2023-12-20T14:21:25;14.50;;;3.67;;
76574;SDS011;65439;50.948;6.988;2023-12-20T14:23:50;6.73;;;2.77;;
76574;SDS011;65439;50.948;6.988;2023-12-20T14:26:17;6.25;;;2.85;;
76574;SDS011;65439;50.948;6.988;2023-12-20T14:28:42;8.30;;;3.15;;
76574;SDS011;65439;50.948;6.988;2023-12-20T14:31:07;9.63;;;3.00;;
76574;SDS011;65439;50.948;6.988;2023-12-20T14:33:33;6.97;;;2.20;;
76574;SDS011;65439;50.948;6.988;2023-12-20T14:35:59;4.25;;;2.22;;
76574;SDS011;65439;50.948;6.988;2023-12-20T14:38:24;14.73;;;3.53;;
76574;SDS011;65439;50.948;6.988;2023-12-20T14:40:50;11.00;;;3.28;;